sensor_id;sensor_type;location;lat;lon;timestamp;pressure;altitude;pressure_sealevel;temperature;humidity
25944;BME280;13742;49.306;8.636;2024-03-02T00:00:39;99343.18;;;7.35;92.35
25944;BME280;13742;49.306;8.636;2024-03-02T00:01:39;99341.95;;;7.34;92.31
25944;BME280;13742;49.306;8.636;2024-03-02T00:02:48;99340.50;;;7.35;92.16
25944;BME280;13742;49.306;8.636;2024-03-02T00:03:39;99338.89;;;7.34;92.33
25944;BME280;13742;49.306;8.636;2024-03-02T00:04:39;99337.62;;;7.36;92.86
25944;BME280;13742;49.306;8.636;2024-03-02T00:05:39;99338.80;;;7.32;92.95
25944;BME280;13742;49.306;8.636;2024-03-02T00:06:39;99339.13;;;7.32;93.04
25944;BME280;13742;49.306;8.636;2024-03-02T00:07:40;99334.77;;;7.33;93.13
25944;BME280;13742;49.306;8.636;2024-03-02T00:08:39;99332.27;;;7.34;93.36
25944;BME280;13742;49.306;8.636;2024-03-02T00:09:39;99331.34;;;7.34;93.51
25944;BME280;13742;49.306;8.636;2024-03-02T00:10:42;99336.23;;;7.35;93.48
25944;BME280;13742;49.306;8.636;2024-03-02T00:11:39;99331.23;;;7.34;93.55
25944;BME280;13742;49.306;8.636;2024-03-02T00:12:39;99334.41;;;7.34;93.27
25944;BME280;13742;49.306;8.636;2024-03-02T00:13:39;99334.26;;;7.35;93.37
25944;BME280;13742;49.306;8.636;2024-03-02T00:14:39;99333.11;;;7.35;93.34
25944;BME280;13742;49.306;8.636;2024-03-02T00:16:39;99329.02;;;7.36;93.77
25944;BME280;13742;49.306;8.636;2024-03-02T00:17:39;99331.59;;;7.36;93.87
25944;BME280;13742;49.306;8.636;2024-03-02T00:18:39;99330.77;;;7.36;93.98
25944;BME280;13742;49.306;8.636;2024-03-02T00:19:39;99326.77;;;7.36;93.68
25944;BME280;13742;49.306;8.636;2024-03-02T00:20:39;99327.07;;;7.37;93.81
25944;BME280;13742;49.306;8.636;2024-03-02T00:21:39;99323.45;;;7.37;93.67
25944;BME280;13742;49.306;8.636;2024-03-02T00:22:39;99321.98;;;7.37;93.80
25944;BME280;13742;49.306;8.636;2024-03-02T00:23:39;99320.28;;;7.37;93.63
25944;BME280;13742;49.306;8.636;2024-03-02T00:24:39;99316.23;;;7.37;93.64
25944;BME280;13742;49.306;8.636;2024-03-02T00:26:39;99318.31;;;7.37;93.66
25944;BME280;13742;49.306;8.636;2024-03-02T00:27:39;99320.70;;;7.36;93.60
25944;BME280;13742;49.306;8.636;2024-03-02T00:28:39;99320.59;;;7.36;93.70
25944;BME280;13742;49.306;8.636;2024-03-02T00:29:39;99322.11;;;7.35;93.55
25944;BME280;13742;49.306;8.636;2024-03-02T00:31:39;99320.21;;;7.36;93.64
25944;BME280;13742;49.306;8.636;2024-03-02T00:32:39;99320.27;;;7.36;93.67
25944;BME280;13742;49.306;8.636;2024-03-02T00:34:39;99316.03;;;7.35;93.57
25944;BME280;13742;49.306;8.636;2024-03-02T00:35:39;99317.63;;;7.35;93.55
25944;BME280;13742;49.306;8.636;2024-03-02T00:36:39;99321.13;;;7.35;93.48
25944;BME280;13742;49.306;8.636;2024-03-02T00:37:39;99323.13;;;7.34;93.26
25944;BME280;13742;49.306;8.636;2024-03-02T00:38:42;99326.58;;;7.34;93.36
25944;BME280;13742;49.306;8.636;2024-03-02T00:39:39;99325.08;;;7.33;93.46
25944;BME280;13742;49.306;8.636;2024-03-02T00:40:39;99328.72;;;7.33;93.65
25944;BME280;13742;49.306;8.636;2024-03-02T00:41:40;99325.37;;;7.31;93.74
25944;BME280;13742;49.306;8.636;2024-03-02T00:42:39;99325.84;;;7.30;93.63
25944;BME280;13742;49.306;8.636;2024-03-02T00:43:42;99329.03;;;7.31;93.61
25944;BME280;13742;49.306;8.636;2024-03-02T00:44:39;99327.97;;;7.30;93.67
25944;BME280;13742;49.306;8.636;2024-03-02T00:45:39;99327.84;;;7.30;93.75
25944;BME280;13742;49.306;8.636;2024-03-02T00:46:39;99327.63;;;7.29;93.86
25944;BME280;13742;49.306;8.636;2024-03-02T00:47:39;99325.73;;;7.27;93.55
25944;BME280;13742;49.306;8.636;2024-03-02T00:48:39;99331.23;;;7.26;93.75
25944;BME280;13742;49.306;8.636;2024-03-02T00:49:39;99329.87;;;7.26;93.77
25944;BME280;13742;49.306;8.636;2024-03-02T00:50:39;99329.68;;;7.26;93.88
25944;BME280;13742;49.306;8.636;2024-03-02T00:51:39;99333.13;;;7.25;93.94
25944;BME280;13742;49.306;8.636;2024-03-02T00:52:40;99329.47;;;7.25;94.19
25944;BME280;13742;49.306;8.636;2024-03-02T00:53:39;99329.94;;;7.25;94.14
25944;BME280;13742;49.306;8.636;2024-03-02T00:54:39;99329.98;;;7.24;94.29
25944;BME280;13742;49.306;8.636;2024-03-02T00:55:39;99328.00;;;7.24;94.20
25944;BME280;13742;49.306;8.636;2024-03-02T00:56:39;99334.75;;;7.24;94.26
25944;BME280;13742;49.306;8.636;2024-03-02T00:57:39;99332.22;;;7.23;94.30
25944;BME280;13742;49.306;8.636;2024-03-02T00:58:39;99330.22;;;7.23;94.35
25944;BME280;13742;49.306;8.636;2024-03-02T00:59:39;99333.91;;;7.23;94.43
25944;BME280;13742;49.306;8.636;2024-03-02T01:00:39;99332.27;;;7.23;94.57
25944;BME280;13742;49.306;8.636;2024-03-02T01:01:39;99332.01;;;7.22;94.49
25944;BME280;13742;49.306;8.636;2024-03-02T01:02:39;99328.28;;;7.21;94.53
25944;BME280;13742;49.306;8.636;2024-03-02T01:03:39;99327.96;;;7.21;94.40
25944;BME280;13742;49.306;8.636;2024-03-02T01:04:39;99329.66;;;7.21;94.58
25944;BME280;13742;49.306;8.636;2024-03-02T01:05:42;99330.16;;;7.20;94.60
25944;BME280;13742;49.306;8.636;2024-03-02T01:06:39;99331.17;;;7.20;94.99
25944;BME280;13742;49.306;8.636;2024-03-02T01:07:39;99332.73;;;7.19;94.96
25944;BME280;13742;49.306;8.636;2024-03-02T01:08:39;99332.02;;;7.20;95.10
25944;BME280;13742;49.306;8.636;2024-03-02T01:09:39;99330.50;;;7.18;95.20
25944;BME280;13742;49.306;8.636;2024-03-02T01:10:39;99336.41;;;7.19;95.17
25944;BME280;13742;49.306;8.636;2024-03-02T01:11:39;99340.40;;;7.20;95.16
25944;BME280;13742;49.306;8.636;2024-03-02T01:12:39;99341.08;;;7.20;95.21
25944;BME280;13742;49.306;8.636;2024-03-02T01:13:39;99341.56;;;7.20;95.17
25944;BME280;13742;49.306;8.636;2024-03-02T01:14:39;99344.45;;;7.20;95.02
25944;BME280;13742;49.306;8.636;2024-03-02T01:15:39;99342.70;;;7.20;95.11
25944;BME280;13742;49.306;8.636;2024-03-02T01:16:39;99345.92;;;7.20;95.15
25944;BME280;13742;49.306;8.636;2024-03-02T01:17:39;99344.94;;;7.19;94.99
25944;BME280;13742;49.306;8.636;2024-03-02T01:18:39;99351.02;;;7.18;94.79
25944;BME280;13742;49.306;8.636;2024-03-02T01:19:41;99347.91;;;7.17;95.03
25944;BME280;13742;49.306;8.636;2024-03-02T01:20:39;99349.91;;;7.17;94.88
25944;BME280;13742;49.306;8.636;2024-03-02T01:21:39;99345.52;;;7.16;95.01
25944;BME280;13742;49.306;8.636;2024-03-02T01:22:39;99347.86;;;7.16;94.84
25944;BME280;13742;49.306;8.636;2024-03-02T01:23:39;99351.45;;;7.15;94.71
25944;BME280;13742;49.306;8.636;2024-03-02T01:24:39;99356.70;;;7.15;94.74
25944;BME280;13742;49.306;8.636;2024-03-02T01:25:39;99350.39;;;7.14;94.55
25944;BME280;13742;49.306;8.636;2024-03-02T01:26:39;99351.82;;;7.14;94.62
25944;BME280;13742;49.306;8.636;2024-03-02T01:27:39;99351.44;;;7.14;94.74
25944;BME280;13742;49.306;8.636;2024-03-02T01:28:39;99353.95;;;7.14;94.58
25944;BME280;13742;49.306;8.636;2024-03-02T01:29:39;99354.67;;;7.12;94.71
25944;BME280;13742;49.306;8.636;2024-03-02T01:30:39;99353.02;;;7.11;94.57
25944;BME280;13742;49.306;8.636;2024-03-02T01:31:42;99351.83;;;7.09;94.52
25944;BME280;13742;49.306;8.636;2024-03-02T01:32:39;99348.55;;;7.07;94.46
25944;BME280;13742;49.306;8.636;2024-03-02T01:33:39;99347.05;;;7.09;94.88
25944;BME280;13742;49.306;8.636;2024-03-02T01:34:39;99345.00;;;7.08;94.86
25944;BME280;13742;49.306;8.636;2024-03-02T01:35:39;99345.48;;;7.07;94.75
25944;BME280;13742;49.306;8.636;2024-03-02T01:36:39;99343.53;;;7.06;94.59
25944;BME280;13742;49.306;8.636;2024-03-02T01:37:39;99341.77;;;7.04;94.31
25944;BME280;13742;49.306;8.636;2024-03-02T01:38:39;99336.88;;;7.03;94.15
25944;BME280;13742;49.306;8.636;2024-03-02T01:39:39;99337.55;;;7.04;94.55
25944;BME280;13742;49.306;8.636;2024-03-02T01:40:39;99336.60;;;7.03;94.62
25944;BME280;13742;49.306;8.636;2024-03-02T01:41:39;99334.63;;;7.03;94.93
25944;BME280;13742;49.306;8.636;2024-03-02T01:42:39;99339.48;;;7.02;94.76
25944;BME280;13742;49.306;8.636;2024-03-02T01:43:39;99335.48;;;7.02;94.79
25944;BME280;13742;49.306;8.636;2024-03-02T01:44:39;99336.02;;;7.02;95.05
25944;BME280;13742;49.306;8.636;2024-03-02T01:45:39;99333.28;;;7.01;95.11
25944;BME280;13742;49.306;8.636;2024-03-02T01:46:39;99331.38;;;7.00;95.37
25944;BME280;13742;49.306;8.636;2024-03-02T01:47:39;99332.25;;;7.00;95.27
25944;BME280;13742;49.306;8.636;2024-03-02T01:48:39;99332.13;;;6.99;95.34
25944;BME280;13742;49.306;8.636;2024-03-02T01:49:40;99332.50;;;6.99;95.38
25944;BME280;13742;49.306;8.636;2024-03-02T01:50:39;99329.19;;;6.99;95.68
25944;BME280;13742;49.306;8.636;2024-03-02T01:51:39;99329.83;;;6.99;95.66
25944;BME280;13742;49.306;8.636;2024-03-02T01:52:39;99325.23;;;6.99;95.76
25944;BME280;13742;49.306;8.636;2024-03-02T01:53:39;99321.05;;;6.98;95.59
25944;BME280;13742;49.306;8.636;2024-03-02T01:54:38;99317.47;;;6.96;95.40
25944;BME280;13742;49.306;8.636;2024-03-02T01:55:39;99321.14;;;6.97;95.31
25944;BME280;13742;49.306;8.636;2024-03-02T01:56:39;99319.33;;;6.96;95.39
25944;BME280;13742;49.306;8.636;2024-03-02T01:57:38;99319.64;;;6.96;95.45
25944;BME280;13742;49.306;8.636;2024-03-02T01:58:38;99313.41;;;6.96;95.55
25944;BME280;13742;49.306;8.636;2024-03-02T01:59:38;99315.27;;;6.95;95.50
25944;BME280;13742;49.306;8.636;2024-03-02T02:00:38;99314.26;;;6.94;95.27
25944;BME280;13742;49.306;8.636;2024-03-02T02:01:39;99312.77;;;6.94;95.10
25944;BME280;13742;49.306;8.636;2024-03-02T02:02:38;99308.77;;;6.94;95.11
25944;BME280;13742;49.306;8.636;2024-03-02T02:03:40;99310.91;;;6.94;95.25
25944;BME280;13742;49.306;8.636;2024-03-02T02:04:38;99310.47;;;6.94;95.37
25944;BME280;13742;49.306;8.636;2024-03-02T02:05:38;99309.80;;;6.94;95.40
25944;BME280;13742;49.306;8.636;2024-03-02T02:06:38;99305.84;;;6.92;95.43
25944;BME280;13742;49.306;8.636;2024-03-02T02:07:39;99310.34;;;6.93;95.36
25944;BME280;13742;49.306;8.636;2024-03-02T02:08:38;99308.03;;;6.93;95.35
25944;BME280;13742;49.306;8.636;2024-03-02T02:09:39;99312.39;;;6.92;95.22
25944;BME280;13742;49.306;8.636;2024-03-02T02:10:38;99312.83;;;6.92;95.13
25944;BME280;13742;49.306;8.636;2024-03-02T02:11:39;99315.89;;;6.92;95.06
25944;BME280;13742;49.306;8.636;2024-03-02T02:12:39;99309.53;;;6.91;95.06
25944;BME280;13742;49.306;8.636;2024-03-02T02:13:38;99308.25;;;6.90;94.98
25944;BME280;13742;49.306;8.636;2024-03-02T02:14:40;99304.00;;;6.91;95.07
25944;BME280;13742;49.306;8.636;2024-03-02T02:15:39;99301.95;;;6.92;95.01
25944;BME280;13742;49.306;8.636;2024-03-02T02:16:38;99299.55;;;6.90;94.87
25944;BME280;13742;49.306;8.636;2024-03-02T02:17:38;99299.39;;;6.89;94.74
25944;BME280;13742;49.306;8.636;2024-03-02T02:18:38;99296.91;;;6.89;94.70
25944;BME280;13742;49.306;8.636;2024-03-02T02:19:40;99299.04;;;6.89;94.60
25944;BME280;13742;49.306;8.636;2024-03-02T02:20:39;99295.95;;;6.88;94.70
25944;BME280;13742;49.306;8.636;2024-03-02T02:21:41;99299.73;;;6.88;94.75
25944;BME280;13742;49.306;8.636;2024-03-02T02:22:38;99302.17;;;6.87;94.74
25944;BME280;13742;49.306;8.636;2024-03-02T02:23:39;99301.30;;;6.87;94.84
25944;BME280;13742;49.306;8.636;2024-03-02T02:24:39;99302.42;;;6.86;94.82
25944;BME280;13742;49.306;8.636;2024-03-02T02:25:39;99304.66;;;6.86;94.77
25944;BME280;13742;49.306;8.636;2024-03-02T02:26:38;99302.75;;;6.86;94.68
25944;BME280;13742;49.306;8.636;2024-03-02T02:27:39;99303.68;;;6.85;94.81
25944;BME280;13742;49.306;8.636;2024-03-02T02:28:39;99303.77;;;6.85;94.86
25944;BME280;13742;49.306;8.636;2024-03-02T02:29:38;99302.98;;;6.84;94.77
25944;BME280;13742;49.306;8.636;2024-03-02T02:30:38;99300.61;;;6.83;94.83
25944;BME280;13742;49.306;8.636;2024-03-02T02:31:39;99300.75;;;6.82;94.74
25944;BME280;13742;49.306;8.636;2024-03-02T02:32:38;99301.04;;;6.80;94.92
25944;BME280;13742;49.306;8.636;2024-03-02T02:33:42;99298.58;;;6.80;94.79
25944;BME280;13742;49.306;8.636;2024-03-02T02:34:39;99299.17;;;6.82;95.04
25944;BME280;13742;49.306;8.636;2024-03-02T02:35:38;99298.38;;;6.81;95.07
25944;BME280;13742;49.306;8.636;2024-03-02T02:36:39;99299.86;;;6.81;95.12
25944;BME280;13742;49.306;8.636;2024-03-02T02:37:39;99299.56;;;6.80;95.07
25944;BME280;13742;49.306;8.636;2024-03-02T02:38:40;99294.89;;;6.79;95.06
25944;BME280;13742;49.306;8.636;2024-03-02T02:39:38;99296.77;;;6.80;95.42
25944;BME280;13742;49.306;8.636;2024-03-02T02:40:38;99295.44;;;6.79;95.34
25944;BME280;13742;49.306;8.636;2024-03-02T02:41:39;99294.70;;;6.78;95.16
25944;BME280;13742;49.306;8.636;2024-03-02T02:42:39;99294.22;;;6.78;95.26
25944;BME280;13742;49.306;8.636;2024-03-02T02:43:40;99289.82;;;6.77;95.26
25944;BME280;13742;49.306;8.636;2024-03-02T02:44:38;99288.20;;;6.78;95.58
25944;BME280;13742;49.306;8.636;2024-03-02T02:45:38;99289.88;;;6.77;95.41
25944;BME280;13742;49.306;8.636;2024-03-02T02:46:39;99285.95;;;6.78;95.73
25944;BME280;13742;49.306;8.636;2024-03-02T02:47:39;99284.48;;;6.78;95.93
25944;BME280;13742;49.306;8.636;2024-03-02T02:48:38;99287.41;;;6.77;95.76
25944;BME280;13742;49.306;8.636;2024-03-02T02:49:38;99285.23;;;6.77;95.70
25944;BME280;13742;49.306;8.636;2024-03-02T02:50:38;99282.49;;;6.77;95.78
25944;BME280;13742;49.306;8.636;2024-03-02T02:51:38;99280.23;;;6.76;95.62
25944;BME280;13742;49.306;8.636;2024-03-02T02:52:40;99277.57;;;6.77;95.74
25944;BME280;13742;49.306;8.636;2024-03-02T02:53:40;99276.66;;;6.76;95.65
25944;BME280;13742;49.306;8.636;2024-03-02T02:54:38;99279.69;;;6.76;95.73
25944;BME280;13742;49.306;8.636;2024-03-02T02:55:40;99281.41;;;6.75;95.68
25944;BME280;13742;49.306;8.636;2024-03-02T02:56:38;99283.98;;;6.75;95.73
25944;BME280;13742;49.306;8.636;2024-03-02T02:57:40;99283.83;;;6.73;95.60
25944;BME280;13742;49.306;8.636;2024-03-02T02:58:40;99278.89;;;6.72;95.50
25944;BME280;13742;49.306;8.636;2024-03-02T02:59:38;99274.67;;;6.72;95.64
25944;BME280;13742;49.306;8.636;2024-03-02T03:00:39;99278.36;;;6.73;95.85
25944;BME280;13742;49.306;8.636;2024-03-02T03:01:38;99278.33;;;6.74;95.86
25944;BME280;13742;49.306;8.636;2024-03-02T03:02:39;99278.14;;;6.73;95.72
25944;BME280;13742;49.306;8.636;2024-03-02T03:03:38;99281.56;;;6.72;95.55
25944;BME280;13742;49.306;8.636;2024-03-02T03:04:39;99282.20;;;6.71;95.50
25944;BME280;13742;49.306;8.636;2024-03-02T03:05:38;99281.63;;;6.72;95.59
25944;BME280;13742;49.306;8.636;2024-03-02T03:06:38;99277.72;;;6.71;95.69
25944;BME280;13742;49.306;8.636;2024-03-02T03:07:39;99278.10;;;6.71;95.76
25944;BME280;13742;49.306;8.636;2024-03-02T03:08:38;99279.03;;;6.71;95.83
25944;BME280;13742;49.306;8.636;2024-03-02T03:09:39;99276.02;;;6.71;95.84
25944;BME280;13742;49.306;8.636;2024-03-02T03:10:38;99271.27;;;6.71;96.02
25944;BME280;13742;49.306;8.636;2024-03-02T03:11:38;99272.74;;;6.71;96.22
25944;BME280;13742;49.306;8.636;2024-03-02T03:12:40;99271.41;;;6.70;96.11
25944;BME280;13742;49.306;8.636;2024-03-02T03:13:38;99272.74;;;6.71;96.06
25944;BME280;13742;49.306;8.636;2024-03-02T03:14:40;99271.19;;;6.70;96.00
25944;BME280;13742;49.306;8.636;2024-03-02T03:15:38;99272.02;;;6.69;96.19
25944;BME280;13742;49.306;8.636;2024-03-02T03:16:38;99272.57;;;6.68;96.19
25944;BME280;13742;49.306;8.636;2024-03-02T03:17:38;99270.06;;;6.67;96.24
25944;BME280;13742;49.306;8.636;2024-03-02T03:18:38;99275.53;;;6.66;96.36
25944;BME280;13742;49.306;8.636;2024-03-02T03:19:38;99271.36;;;6.65;96.30
25944;BME280;13742;49.306;8.636;2024-03-02T03:20:38;99268.79;;;6.65;96.32
25944;BME280;13742;49.306;8.636;2024-03-02T03:21:38;99268.27;;;6.65;96.25
25944;BME280;13742;49.306;8.636;2024-03-02T03:22:39;99269.02;;;6.64;96.00
25944;BME280;13742;49.306;8.636;2024-03-02T03:23:38;99267.13;;;6.65;96.27
25944;BME280;13742;49.306;8.636;2024-03-02T03:24:38;99266.16;;;6.63;96.50
25944;BME280;13742;49.306;8.636;2024-03-02T03:25:38;99268.22;;;6.64;96.50
25944;BME280;13742;49.306;8.636;2024-03-02T03:26:39;99264.97;;;6.61;96.58
25944;BME280;13742;49.306;8.636;2024-03-02T03:27:38;99262.89;;;6.61;96.56
25944;BME280;13742;49.306;8.636;2024-03-02T03:28:38;99269.80;;;6.62;96.70
25944;BME280;13742;49.306;8.636;2024-03-02T03:29:38;99265.19;;;6.61;96.86
25944;BME280;13742;49.306;8.636;2024-03-02T03:30:38;99262.34;;;6.61;96.99
25944;BME280;13742;49.306;8.636;2024-03-02T03:31:38;99265.61;;;6.63;97.15
25944;BME280;13742;49.306;8.636;2024-03-02T03:32:38;99263.34;;;6.62;96.88
25944;BME280;13742;49.306;8.636;2024-03-02T03:33:38;99261.69;;;6.61;96.84
25944;BME280;13742;49.306;8.636;2024-03-02T03:34:38;99264.50;;;6.62;97.04
25944;BME280;13742;49.306;8.636;2024-03-02T03:35:38;99261.44;;;6.62;96.91
25944;BME280;13742;49.306;8.636;2024-03-02T03:36:38;99262.68;;;6.63;97.11
25944;BME280;13742;49.306;8.636;2024-03-02T03:37:38;99264.86;;;6.63;96.94
25944;BME280;13742;49.306;8.636;2024-03-02T03:38:38;99266.02;;;6.64;96.87
25944;BME280;13742;49.306;8.636;2024-03-02T03:39:38;99265.11;;;6.64;96.91
25944;BME280;13742;49.306;8.636;2024-03-02T03:40:38;99266.77;;;6.65;96.86
25944;BME280;13742;49.306;8.636;2024-03-02T03:41:40;99263.27;;;6.66;96.74
25944;BME280;13742;49.306;8.636;2024-03-02T03:42:39;99263.13;;;6.67;96.83
25944;BME280;13742;49.306;8.636;2024-03-02T03:43:39;99259.73;;;6.67;96.81
25944;BME280;13742;49.306;8.636;2024-03-02T03:44:40;99257.33;;;6.66;96.69
25944;BME280;13742;49.306;8.636;2024-03-02T03:45:38;99260.64;;;6.66;96.66
25944;BME280;13742;49.306;8.636;2024-03-02T03:46:38;99258.86;;;6.66;96.72
25944;BME280;13742;49.306;8.636;2024-03-02T03:47:38;99256.52;;;6.66;96.72
25944;BME280;13742;49.306;8.636;2024-03-02T03:48:38;99257.64;;;6.65;96.69
25944;BME280;13742;49.306;8.636;2024-03-02T03:49:38;99257.31;;;6.65;96.76
25944;BME280;13742;49.306;8.636;2024-03-02T03:50:38;99256.73;;;6.65;96.69
25944;BME280;13742;49.306;8.636;2024-03-02T03:51:38;99256.66;;;6.64;96.70
25944;BME280;13742;49.306;8.636;2024-03-02T03:52:39;99259.17;;;6.66;96.66
25944;BME280;13742;49.306;8.636;2024-03-02T03:53:39;99258.33;;;6.64;96.61
25944;BME280;13742;49.306;8.636;2024-03-02T03:54:38;99256.34;;;6.64;96.62
25944;BME280;13742;49.306;8.636;2024-03-02T03:55:38;99260.01;;;6.66;96.75
25944;BME280;13742;49.306;8.636;2024-03-02T03:56:38;99260.75;;;6.66;96.73
25944;BME280;13742;49.306;8.636;2024-03-02T03:57:38;99262.74;;;6.66;96.66
25944;BME280;13742;49.306;8.636;2024-03-02T03:58:38;99263.91;;;6.68;96.81
25944;BME280;13742;49.306;8.636;2024-03-02T03:59:38;99264.37;;;6.68;96.87
25944;BME280;13742;49.306;8.636;2024-03-02T04:00:38;99265.83;;;6.67;96.58
25944;BME280;13742;49.306;8.636;2024-03-02T04:01:38;99263.13;;;6.67;96.70
25944;BME280;13742;49.306;8.636;2024-03-02T04:02:38;99266.16;;;6.66;96.74
25944;BME280;13742;49.306;8.636;2024-03-02T04:03:38;99265.26;;;6.67;96.76
25944;BME280;13742;49.306;8.636;2024-03-02T04:04:38;99268.38;;;6.67;96.78
25944;BME280;13742;49.306;8.636;2024-03-02T04:05:38;99267.80;;;6.65;96.90
25944;BME280;13742;49.306;8.636;2024-03-02T04:06:38;99269.66;;;6.66;96.94
25944;BME280;13742;49.306;8.636;2024-03-02T04:07:42;99265.89;;;6.66;96.87
25944;BME280;13742;49.306;8.636;2024-03-02T04:08:38;99267.06;;;6.66;96.86
25944;BME280;13742;49.306;8.636;2024-03-02T04:09:38;99265.51;;;6.66;96.78
25944;BME280;13742;49.306;8.636;2024-03-02T04:10:40;99262.14;;;6.66;96.75
25944;BME280;13742;49.306;8.636;2024-03-02T04:11:38;99264.37;;;6.68;96.88
25944;BME280;13742;49.306;8.636;2024-03-02T04:12:38;99262.80;;;6.66;96.81
25944;BME280;13742;49.306;8.636;2024-03-02T04:13:38;99263.13;;;6.67;96.93
25944;BME280;13742;49.306;8.636;2024-03-02T04:14:38;99262.40;;;6.68;97.02
25944;BME280;13742;49.306;8.636;2024-03-02T04:15:39;99264.45;;;6.67;96.81
25944;BME280;13742;49.306;8.636;2024-03-02T04:16:39;99263.31;;;6.67;96.58
25944;BME280;13742;49.306;8.636;2024-03-02T04:17:38;99264.09;;;6.68;96.76
25944;BME280;13742;49.306;8.636;2024-03-02T04:18:39;99265.02;;;6.68;96.82
25944;BME280;13742;49.306;8.636;2024-03-02T04:19:38;99265.98;;;6.69;96.84
25944;BME280;13742;49.306;8.636;2024-03-02T04:20:38;99264.99;;;6.69;96.70
25944;BME280;13742;49.306;8.636;2024-03-02T04:21:38;99267.36;;;6.70;96.58
25944;BME280;13742;49.306;8.636;2024-03-02T04:22:38;99269.68;;;6.71;96.62
25944;BME280;13742;49.306;8.636;2024-03-02T04:23:38;99269.58;;;6.71;96.45
25944;BME280;13742;49.306;8.636;2024-03-02T04:24:38;99265.41;;;6.71;96.47
25944;BME280;13742;49.306;8.636;2024-03-02T04:25:38;99265.93;;;6.72;96.29
25944;BME280;13742;49.306;8.636;2024-03-02T04:26:38;99271.56;;;6.72;96.17
25944;BME280;13742;49.306;8.636;2024-03-02T04:27:38;99266.66;;;6.73;96.34
25944;BME280;13742;49.306;8.636;2024-03-02T04:28:38;99269.94;;;6.73;96.19
25944;BME280;13742;49.306;8.636;2024-03-02T04:29:39;99268.80;;;6.73;96.09
25944;BME280;13742;49.306;8.636;2024-03-02T04:30:38;99271.64;;;6.73;95.79
25944;BME280;13742;49.306;8.636;2024-03-02T04:31:39;99268.63;;;6.74;95.83
25944;BME280;13742;49.306;8.636;2024-03-02T04:32:38;99270.78;;;6.74;95.89
25944;BME280;13742;49.306;8.636;2024-03-02T04:33:38;99271.16;;;6.75;96.00
25944;BME280;13742;49.306;8.636;2024-03-02T04:34:38;99273.05;;;6.75;95.90
25944;BME280;13742;49.306;8.636;2024-03-02T04:35:38;99273.98;;;6.75;95.85
25944;BME280;13742;49.306;8.636;2024-03-02T04:36:38;99274.25;;;6.75;95.81
25944;BME280;13742;49.306;8.636;2024-03-02T04:37:38;99274.14;;;6.75;95.93
25944;BME280;13742;49.306;8.636;2024-03-02T04:38:38;99279.80;;;6.76;96.03
25944;BME280;13742;49.306;8.636;2024-03-02T04:39:38;99278.20;;;6.76;95.90
25944;BME280;13742;49.306;8.636;2024-03-02T04:40:38;99277.00;;;6.76;95.90
25944;BME280;13742;49.306;8.636;2024-03-02T04:41:38;99276.19;;;6.76;95.95
25944;BME280;13742;49.306;8.636;2024-03-02T04:42:38;99272.47;;;6.76;95.96
25944;BME280;13742;49.306;8.636;2024-03-02T04:43:38;99277.72;;;6.76;95.81
25944;BME280;13742;49.306;8.636;2024-03-02T04:44:38;99275.17;;;6.76;95.83
25944;BME280;13742;49.306;8.636;2024-03-02T04:45:38;99276.30;;;6.76;95.77
25944;BME280;13742;49.306;8.636;2024-03-02T04:46:38;99272.91;;;6.76;95.77
25944;BME280;13742;49.306;8.636;2024-03-02T04:47:38;99270.16;;;6.73;95.63
25944;BME280;13742;49.306;8.636;2024-03-02T04:48:38;99269.69;;;6.74;95.67
25944;BME280;13742;49.306;8.636;2024-03-02T04:49:38;99272.67;;;6.73;95.53
25944;BME280;13742;49.306;8.636;2024-03-02T04:50:38;99271.25;;;6.73;95.65
25944;BME280;13742;49.306;8.636;2024-03-02T04:51:38;99270.85;;;6.72;95.52
25944;BME280;13742;49.306;8.636;2024-03-02T04:52:39;99273.02;;;6.71;95.55
25944;BME280;13742;49.306;8.636;2024-03-02T04:53:38;99270.97;;;6.70;95.40
25944;BME280;13742;49.306;8.636;2024-03-02T04:54:53;99273.77;;;6.69;95.37
25944;BME280;13742;49.306;8.636;2024-03-02T04:55:56;99270.08;;;6.69;95.49
25944;BME280;13742;49.306;8.636;2024-03-02T04:56:43;99276.25;;;6.69;95.49
25944;BME280;13742;49.306;8.636;2024-03-02T04:57:38;99276.47;;;6.69;95.49
25944;BME280;13742;49.306;8.636;2024-03-02T04:58:38;99278.39;;;6.69;95.43
25944;BME280;13742;49.306;8.636;2024-03-02T04:59:38;99278.00;;;6.70;95.44
25944;BME280;13742;49.306;8.636;2024-03-02T05:00:38;99274.39;;;6.66;95.29
25944;BME280;13742;49.306;8.636;2024-03-02T05:01:38;99281.25;;;6.66;95.17
25944;BME280;13742;49.306;8.636;2024-03-02T05:02:38;99280.27;;;6.65;95.13
25944;BME280;13742;49.306;8.636;2024-03-02T05:03:38;99283.63;;;6.66;95.28
25944;BME280;13742;49.306;8.636;2024-03-02T05:04:38;99283.88;;;6.66;95.25
25944;BME280;13742;49.306;8.636;2024-03-02T05:05:38;99287.87;;;6.66;95.21
25944;BME280;13742;49.306;8.636;2024-03-02T05:06:40;99292.59;;;6.66;95.10
25944;BME280;13742;49.306;8.636;2024-03-02T05:07:38;99291.80;;;6.66;95.04
25944;BME280;13742;49.306;8.636;2024-03-02T05:08:38;99294.81;;;6.65;94.94
25944;BME280;13742;49.306;8.636;2024-03-02T05:09:39;99297.47;;;6.65;94.84
25944;BME280;13742;49.306;8.636;2024-03-02T05:10:38;99295.38;;;6.64;94.74
25944;BME280;13742;49.306;8.636;2024-03-02T05:11:54;99296.73;;;6.64;94.80
25944;BME280;13742;49.306;8.636;2024-03-02T05:12:43;99297.25;;;6.64;94.80
25944;BME280;13742;49.306;8.636;2024-03-02T05:13:38;99302.04;;;6.63;94.74
25944;BME280;13742;49.306;8.636;2024-03-02T05:14:38;99302.70;;;6.63;94.71
25944;BME280;13742;49.306;8.636;2024-03-02T05:15:38;99304.55;;;6.63;94.62
25944;BME280;13742;49.306;8.636;2024-03-02T05:16:38;99301.54;;;6.61;94.51
25944;BME280;13742;49.306;8.636;2024-03-02T05:17:39;99308.88;;;6.59;94.47
25944;BME280;13742;49.306;8.636;2024-03-02T05:18:38;99308.41;;;6.58;94.35
25944;BME280;13742;49.306;8.636;2024-03-02T05:19:38;99306.84;;;6.56;94.25
25944;BME280;13742;49.306;8.636;2024-03-02T05:20:38;99313.00;;;6.55;94.30
25944;BME280;13742;49.306;8.636;2024-03-02T05:21:38;99315.18;;;6.55;94.33
25944;BME280;13742;49.306;8.636;2024-03-02T05:22:39;99313.30;;;6.54;94.50
25944;BME280;13742;49.306;8.636;2024-03-02T05:23:38;99314.01;;;6.54;94.58
25944;BME280;13742;49.306;8.636;2024-03-02T05:24:38;99310.77;;;6.53;94.53
25944;BME280;13742;49.306;8.636;2024-03-02T05:25:38;99312.38;;;6.53;94.68